Time;durP1;ratioP1;P1;durP2;ratioP2;P2;SDS_P1;SDS_P2;PMS_P1;PMS_P2;Temp;Humidity;BMP_temperature;BMP_pressure;BME280_temperature;BME280_humidity;BME280_pressure;Samples;Min_cycle;Max_cycle;Signal;HPM_P1;HPM_P2
2021/07/22 00:00:24;;;;;;;3.64;1.49;;;;;;;;;;348413;153;865220;-60
2021/07/22 00:01:25;;;;;;;2.60;1.64;;;;;;;;;;345432;154;858583;-60
2021/07/22 00:02:27;;;;;;;3.38;1.55;;;;;;;;;;347591;153;857278;-61
2021/07/22 00:03:29;;;;;;;2.66;1.43;;;;;;;;;;349292;153;857202;-60
2021/07/22 00:04:30;;;;;;;4.09;1.41;;;;;;;;;;348008;154;864817;-60
2021/07/22 00:05:32;;;;;;;4.65;1.77;;;;;;;;;;350894;150;857286;-59
2021/07/22 00:06:35;;;;;;;3.04;1.57;;;;;;;;;;354209;150;857390;-59
2021/07/22 00:07:37;;;;;;;5.20;2.24;;;;;;;;;;351365;150;860171;-59
2021/07/22 00:08:39;;;;;;;4.16;1.46;;;;;;;;;;349994;151;857262;-59
2021/07/22 00:09:40;;;;;;;4.34;1.66;;;;;;;;;;350014;150;864733;-60
2021/07/22 00:10:42;;;;;;;4.77;1.61;;;;;;;;;;355188;150;857292;-60
2021/07/22 00:11:44;;;;;;;5.49;1.53;;;;;;;;;;353819;151;857430;-59
2021/07/22 00:12:46;;;;;;;3.17;1.96;;;;;;;;;;353377;151;859520;-61
2021/07/22 00:13:48;;;;;;;5.41;1.60;;;;;;;;;;355157;150;857962;-60
2021/07/22 00:14:49;;;;;;;3.71;1.64;;;;;;;;;;356128;151;859243;-60
2021/07/22 00:15:51;;;;;;;5.94;1.76;;;;;;;;;;356014;149;859292;-58
2021/07/22 00:16:53;;;;;;;6.33;1.88;;;;;;;;;;354829;151;858748;-59
2021/07/22 00:17:55;;;;;;;2.35;1.65;;;;;;;;;;355871;150;857832;-60
2021/07/22 00:18:56;;;;;;;6.13;1.90;;;;;;;;;;353523;151;858607;-60
2021/07/22 00:20:00;;;;;;;4.14;1.96;;;;;;;;;;352673;150;859382;-59
2021/07/22 00:21:03;;;;;;;5.36;2.05;;;;;;;;;;354494;151;857645;-59
2021/07/22 00:22:05;;;;;;;4.66;1.89;;;;;;;;;;355670;151;857954;-59
2021/07/22 00:23:06;;;;;;;3.92;1.62;;;;;;;;;;355778;150;857252;-59
2021/07/22 00:24:08;;;;;;;3.46;1.66;;;;;;;;;;354613;151;858735;-59
2021/07/22 00:25:10;;;;;;;2.56;1.76;;;;;;;;;;355787;151;865910;-60
2021/07/22 00:26:12;;;;;;;4.35;1.79;;;;;;;;;;355800;151;865055;-59
2021/07/22 00:27:15;;;;;;;5.79;1.79;;;;;;;;;;354503;150;858740;-59
2021/07/22 00:28:17;;;;;;;3.62;1.81;;;;;;;;;;354531;151;857410;-60
2021/07/22 00:29:18;;;;;;;5.49;1.72;;;;;;;;;;353396;151;860245;-59
2021/07/22 00:30:20;;;;;;;3.97;1.90;;;;;;;;;;353912;150;857304;-60
2021/07/22 00:31:22;;;;;;;5.66;1.74;;;;;;;;;;354337;151;857277;-59
2021/07/22 00:32:23;;;;;;;3.76;2.06;;;;;;;;;;354978;151;864684;-59
2021/07/22 00:33:25;;;;;;;6.18;2.16;;;;;;;;;;350070;150;857148;-60
2021/07/22 00:34:26;;;;;;;4.19;1.69;;;;;;;;;;354602;150;857166;-60
2021/07/22 00:35:28;;;;;;;6.33;1.82;;;;;;;;;;352410;150;858881;-60
2021/07/22 00:36:30;;;;;;;5.31;2.01;;;;;;;;;;352203;149;857608;-60
2021/07/22 00:37:32;;;;;;;3.39;1.74;;;;;;;;;;352972;150;858808;-60
2021/07/22 00:38:33;;;;;;;3.21;1.62;;;;;;;;;;353358;150;858181;-59
2021/07/22 00:39:36;;;;;;;5.19;1.70;;;;;;;;;;353555;151;857302;-59
2021/07/22 00:40:43;;;;;;;6.18;1.68;;;;;;;;;;352757;150;864849;-59
2021/07/22 00:41:45;;;;;;;2.53;1.89;;;;;;;;;;354500;150;857378;-59
2021/07/22 00:42:53;;;;;;;3.67;2.08;;;;;;;;;;353058;151;857214;-60
2021/07/22 00:43:54;;;;;;;5.08;2.03;;;;;;;;;;353158;149;860207;-59
2021/07/22 00:44:56;;;;;;;3.15;1.74;;;;;;;;;;354621;151;858987;-58
2021/07/22 00:45:57;;;;;;;8.94;1.79;;;;;;;;;;351612;150;857317;-59
2021/07/22 00:47:00;;;;;;;3.33;1.82;;;;;;;;;;353748;151;857170;-61
2021/07/22 00:48:01;;;;;;;4.44;1.85;;;;;;;;;;353891;150;857199;-59
2021/07/22 00:49:05;;;;;;;3.54;1.96;;;;;;;;;;353045;150;857244;-59
2021/07/22 00:50:07;;;;;;;3.79;1.87;;;;;;;;;;350120;151;864792;-60
2021/07/22 00:51:09;;;;;;;7.05;2.03;;;;;;;;;;351887;150;864898;-59
2021/07/22 00:52:10;;;;;;;3.18;1.86;;;;;;;;;;353568;150;859415;-59
2021/07/22 00:53:12;;;;;;;4.39;1.84;;;;;;;;;;353840;151;857351;-59
2021/07/22 00:54:13;;;;;;;2.86;1.85;;;;;;;;;;350285;151;859268;-59
2021/07/22 00:55:18;;;;;;;6.91;1.93;;;;;;;;;;354658;150;859298;-59
2021/07/22 00:56:21;;;;;;;5.44;1.84;;;;;;;;;;353915;150;859922;-60
2021/07/22 00:57:22;;;;;;;3.63;2.14;;;;;;;;;;354713;151;857723;-59
2021/07/22 00:58:24;;;;;;;3.28;1.75;;;;;;;;;;355504;150;857577;-59
2021/07/22 00:59:26;;;;;;;5.19;1.87;;;;;;;18.86;95.62;150360.97;353776;150;857207;-59
2021/07/22 01:00:28;;;;;;;2.91;1.66;;;;;;;;;;349174;151;857176;-60
2021/07/22 01:01:29;;;;;;;5.69;1.90;;;;;;;;;;352094;150;857253;-59
2021/07/22 01:02:31;;;;;;;9.99;2.06;;;;;;;;;;355454;150;864749;-59
2021/07/22 01:03:34;;;;;;;3.23;1.78;;;;;;;;;;349996;150;857328;-59
2021/07/22 01:04:36;;;;;;;3.52;1.89;;;;;;;;;;350617;153;859062;-59
2021/07/22 01:05:38;;;;;;;2.86;1.80;;;;;;;;;;354450;150;858097;-59
2021/07/22 01:06:40;;;;;;;5.50;2.00;;;;;;;;;;354941;150;866200;-59
2021/07/22 01:07:42;;;;;;;6.06;1.94;;;;;;;;;;355436;151;857646;-59
2021/07/22 01:08:44;;;;;;;5.14;2.11;;;;;;;;;;355030;150;858096;-59
2021/07/22 01:09:46;;;;;;;5.19;1.81;;;;;;;;;;352326;150;857335;-60
2021/07/22 01:10:48;;;;;;;7.21;2.10;;;;;;;;;;353471;151;859476;-59
2021/07/22 01:11:50;;;;;;;3.62;1.76;;;;;;;;;;356224;147;857502;-59
2021/07/22 01:12:51;;;;;;;9.12;2.27;;;;;;;;;;360060;147;858116;-60
2021/07/22 01:13:53;;;;;;;4.41;2.19;;;;;;;;;;358731;147;857177;-59
2021/07/22 01:14:55;;;;;;;4.20;2.16;;;;;;;;;;358077;148;857351;-59
2021/07/22 01:15:56;;;;;;;3.14;1.84;;;;;;;;;;361040;147;857232;-59
2021/07/22 01:16:58;;;;;;;3.79;1.73;;;;;;;;;;359502;149;857593;-59
2021/07/22 01:18:00;;;;;;;3.31;1.84;;;;;;;;;;362138;147;864723;-59
2021/07/22 01:19:01;;;;;;;4.74;1.77;;;;;;;;;;358913;147;857288;-59
2021/07/22 01:20:05;;;;;;;3.76;1.92;;;;;;;;;;360270;147;857289;-61
2021/07/22 01:21:07;;;;;;;5.93;2.42;;;;;;;;;;361726;147;864696;-60
2021/07/22 01:22:08;;;;;;;5.15;1.97;;;;;;;;;;363005;148;866551;-59
2021/07/22 01:23:10;;;;;;;6.12;1.83;;;;;;;;;;363718;145;857422;-60
2021/07/22 01:24:12;;;;;;;5.84;1.74;;;;;;;;;;361244;147;859995;-59
2021/07/22 01:25:13;;;;;;;6.21;1.93;;;;;;;;;;360035;149;859916;-59
2021/07/22 01:26:15;;;;;;;5.27;1.93;;;;;;;;;;361072;147;865279;-59
2021/07/22 01:27:17;;;;;;;6.74;2.55;;;;;;;;;;361549;148;857316;-59
2021/07/22 01:28:18;;;;;;;3.35;1.75;;;;;;;;;;362594;148;859034;-59
2021/07/22 01:29:20;;;;;;;4.54;1.86;;;;;;;;;;362178;147;858328;-59
2021/07/22 01:30:22;;;;;;;4.93;1.89;;;;;;;;;;363488;145;857435;-59
2021/07/22 01:31:24;;;;;;;3.47;1.94;;;;;;;;;;360999;147;858213;-60
2021/07/22 01:32:26;;;;;;;3.97;1.91;;;;;;;;;;354907;152;857809;-59
2021/07/22 01:33:28;;;;;;;5.20;1.72;;;;;;;;;;359130;148;859032;-60
2021/07/22 01:34:29;;;;;;;6.26;1.97;;;;;;;;;;362819;148;857836;-59
2021/07/22 01:35:31;;;;;;;3.26;2.19;;;;;;;;;;363040;148;857282;-60
2021/07/22 01:36:33;;;;;;;5.81;2.26;;;;;;;;;;362122;147;864716;-59
2021/07/22 01:37:35;;;;;;;3.59;1.54;;;;;;;;;;361233;147;857380;-58
2021/07/22 01:38:36;;;;;;;5.37;1.85;;;;;;;;;;359160;148;857245;-58
2021/07/22 01:39:38;;;;;;;4.39;2.38;;;;;;;;;;360882;148;857265;-59
2021/07/22 01:40:41;;;;;;;6.42;1.92;;;;;;;;;;361478;147;858000;-59
2021/07/22 01:41:43;;;;;;;5.14;2.01;;;;;;;;;;361624;147;859538;-60
2021/07/22 01:42:45;;;;;;;5.96;1.89;;;;;;;;;;359470;148;857758;-59
2021/07/22 01:43:46;;;;;;;6.57;2.38;;;;;;;;;;359785;147;859044;-59
2021/07/22 01:44:48;;;;;;;3.14;1.86;;;;;;;;;;362693;148;858682;-60
2021/07/22 01:45:50;;;;;;;5.21;2.09;;;;;;;;;;362874;148;858448;-60
2021/07/22 01:46:52;;;;;;;6.59;1.90;;;;;;;;;;362523;147;864609;-59
2021/07/22 01:47:53;;;;;;;6.61;2.21;;;;;;;;;;361322;148;857100;-60
2021/07/22 01:48:57;;;;;;;3.87;1.90;;;;;;;;;;359526;147;865356;-59
2021/07/22 01:49:58;;;;;;;2.93;1.73;;;;;;;;;;359270;148;858676;-59
2021/07/22 01:51:01;;;;;;;3.01;2.12;;;;;;;;;;359750;147;857211;-59
2021/07/22 01:52:08;;;;;;;7.09;2.48;;;;;;;;;;360460;148;857717;-59
2021/07/22 01:53:07;;;;;;;4.78;2.15;;;;;;;;;;362937;148;857430;-59
2021/07/22 01:54:09;;;;;;;5.16;1.99;;;;;;;;;;362729;146;864815;-60
2021/07/22 01:55:10;;;;;;;6.02;2.08;;;;;;;;;;361825;148;865022;-59
2021/07/22 01:56:13;;;;;;;9.46;1.89;;;;;;;;;;359750;148;857461;-60
2021/07/22 01:57:14;;;;;;;3.69;1.77;;;;;;;;;;359399;148;859312;-59
2021/07/22 01:58:16;;;;;;;4.64;2.09;;;;;;;;;;362278;147;858072;-59
2021/07/22 01:59:17;;;;;;;4.73;1.64;;;;;;;;;;361436;147;858727;-59
2021/07/22 02:00:20;;;;;;;3.77;2.09;;;;;;;;;;361697;146;857423;-59
2021/07/22 02:01:21;;;;;;;7.74;1.92;;;;;;;;;;365217;145;857641;-59
2021/07/22 02:02:23;;;;;;;5.77;2.10;;;;;;;;;;360995;145;857213;-59
2021/07/22 02:03:24;;;;;;;2.75;1.68;;;;;;;;;;356968;151;857235;-59
2021/07/22 02:04:26;;;;;;;3.20;1.99;;;;;;;;;;358919;148;857207;-59
2021/07/22 02:05:28;;;;;;;9.22;3.31;;;;;;;;;;360696;147;857320;-61
2021/07/22 02:06:31;;;;;;;4.72;1.92;;;;;;;;;;359706;147;865771;-59
2021/07/22 02:07:32;;;;;;;3.71;1.69;;;;;;;;;;359999;147;857208;-59
2021/07/22 02:08:34;;;;;;;5.43;2.00;;;;;;;;;;360976;147;865138;-58
2021/07/22 02:09:36;;;;;;;5.51;2.05;;;;;;;;;;362573;147;857404;-58
2021/07/22 02:10:40;;;;;;;2.42;1.66;;;;;;;;;;357592;147;858958;-59
2021/07/22 02:11:41;;;;;;;4.78;2.00;;;;;;;;;;360034;147;857177;-61
2021/07/22 02:12:43;;;;;;;5.44;2.29;;;;;;;;;;361589;148;858061;-60
2021/07/22 02:13:45;;;;;;;6.27;2.03;;;;;;;;;;361384;148;858657;-60
2021/07/22 02:14:50;;;;;;;2.86;2.10;;;;;;;;;;363055;148;860892;-60
2021/07/22 02:15:50;;;;;;;5.67;2.09;;;;;;;;;;360976;148;858626;-59
2021/07/22 02:16:52;;;;;;;7.77;2.55;;;;;;;;;;362751;146;857196;-59
2021/07/22 02:17:53;;;;;;;6.29;2.09;;;;;;;;;;362944;148;858081;-59
2021/07/22 02:18:55;;;;;;;3.56;2.09;;;;;;;;;;361658;147;861229;-59
2021/07/22 02:19:57;;;;;;;7.41;2.26;;;;;;;;;;361229;147;867008;-59
2021/07/22 02:21:01;;;;;;;7.12;2.15;;;;;;;;;;355513;150;858658;-60
2021/07/22 02:22:02;;;;;;;4.61;1.72;;;;;;;;;;356285;148;858320;-59
2021/07/22 02:23:04;;;;;;;3.93;2.19;;;;;;;;;;360709;145;857282;-59
2021/07/22 02:24:05;;;;;;;9.12;2.03;;;;;;;;;;363090;147;864815;-59
2021/07/22 02:25:08;;;;;;;3.42;1.74;;;;;;;;;;363012;148;857696;-60
2021/07/22 02:26:10;;;;;;;3.58;1.94;;;;;;;;;;361965;147;857553;-59
2021/07/22 02:27:12;;;;;;;2.93;1.94;;;;;;;;;;362764;147;857430;-59
2021/07/22 02:28:13;;;;;;;4.26;2.11;;;;;;;;;;362925;148;857653;-59
2021/07/22 02:29:15;;;;;;;4.84;1.76;;;;;;;;;;359675;147;857809;-59
2021/07/22 02:30:17;;;;;;;5.60;1.87;;;;;;;;;;362201;147;857249;-59
2021/07/22 02:31:18;;;;;;;3.58;1.93;;;;;;;;;;358953;146;857351;-59
2021/07/22 02:32:20;;;;;;;2.60;1.54;;;;;;;;;;360420;147;857158;-59
2021/07/22 02:33:21;;;;;;;6.31;1.69;;;;;;;;;;363088;145;857195;-59
2021/07/22 02:34:23;;;;;;;6.23;1.76;;;;;;;;;;360087;148;859990;-59
2021/07/22 02:35:25;;;;;;;3.59;2.31;;;;;;;;;;356057;151;858956;-59
2021/07/22 02:36:26;;;;;;;6.71;2.09;;;;;;;;;;359378;147;857328;-59
2021/07/22 02:37:28;;;;;;;5.32;2.22;;;;;;;;;;360961;148;857223;-60
2021/07/22 02:38:30;;;;;;;7.04;2.02;;;;;;;;;;360316;147;857154;-59
2021/07/22 02:39:32;;;;;;;5.69;1.97;;;;;;;;;;356879;148;864714;-59
2021/07/22 02:40:34;;;;;;;3.51;1.93;;;;;;;;;;362713;145;866610;-59
2021/07/22 02:41:36;;;;;;;4.41;2.37;;;;;;;;;;362005;147;864658;-59
2021/07/22 02:42:37;;;;;;;2.91;1.87;;;;;;;;;;362472;148;866882;-59
2021/07/22 02:43:42;;;;;;;6.51;1.92;;;;;;;;;;361981;147;859680;-59
2021/07/22 02:44:43;;;;;;;5.04;1.98;;;;;;;;;;362088;148;858559;-60
2021/07/22 02:45:45;;;;;;;6.66;2.31;;;;;;;;;;357065;148;857235;-59
2021/07/22 02:46:48;;;;;;;4.59;1.93;;;;;;;;;;358783;147;858323;-60
2021/07/22 02:47:49;;;;;;;6.33;1.76;;;;;;;;;;362418;147;866400;-60
2021/07/22 02:48:55;;;;;;;4.26;1.90;;;;;;;;;;360733;148;857286;-59
2021/07/22 02:49:58;;;;;;;4.68;2.02;;;;;;;;;;362848;147;864729;-59
2021/07/22 02:51:00;;;;;;;3.71;2.11;;;;;;;;;;359330;147;857209;-59
2021/07/22 02:52:03;;;;;;;4.05;1.97;;;;;;;;;;359647;147;866818;-59
2021/07/22 02:53:04;;;;;;;6.70;1.95;;;;;;;;;;357339;148;866005;-59
2021/07/22 02:54:06;;;;;;;6.47;2.21;;;;;;;;;;361789;148;864781;-59
2021/07/22 02:55:08;;;;;;;9.02;1.86;;;;;;;;;;363040;147;857078;-60
2021/07/22 02:56:11;;;;;;;4.16;1.79;;;;;;;;;;364104;147;857797;-59
2021/07/22 02:57:12;;;;;;;5.10;1.72;;;;;;;;;;361837;146;857410;-59
2021/07/22 02:58:14;;;;;;;4.53;1.99;;;;;;;;;;361783;145;857304;-59
2021/07/22 02:59:16;;;;;;;5.29;1.95;;;;;;;;;;358484;148;857244;-59
2021/07/22 03:00:18;;;;;;;5.14;2.41;;;;;;;;;;358935;146;857268;-59
2021/07/22 03:01:19;;;;;;;6.78;1.94;;;;;;;;;;361052;147;857272;-60
2021/07/22 03:02:21;;;;;;;4.06;2.08;;;;;;;;;;360610;147;865508;-61
2021/07/22 03:03:23;;;;;;;6.11;1.86;;;;;;;;;;361710;148;858615;-60
2021/07/22 03:04:24;;;;;;;8.74;2.93;;;;;;;;;;359797;147;857126;-60
2021/07/22 03:05:26;;;;;;;4.06;1.82;;;;;;;;;;361698;147;857218;-60
2021/07/22 03:06:29;;;;;;;5.55;1.60;;;;;;;;;;358124;148;857294;-60
2021/07/22 03:07:30;;;;;;;3.79;1.31;;;;;;;;;;359538;145;858350;-60
2021/07/22 03:08:32;;;;;;;3.63;1.91;;;;;;;;;;362244;145;857527;-59
2021/07/22 03:09:33;;;;;;;5.74;1.91;;;;;;;;;;359183;147;858865;-60
2021/07/22 03:10:36;;;;;;;9.02;1.97;;;;;;;;;;357659;147;857862;-59
2021/07/22 03:11:38;;;;;;;8.63;1.59;;;;;;;;;;359205;147;865712;-59
2021/07/22 03:12:39;;;;;;;7.64;2.51;;;;;;;;;;360771;147;857130;-59
2021/07/22 03:13:41;;;;;;;6.54;1.86;;;;;;;;;;354539;148;857390;-59
2021/07/22 03:14:42;;;;;;;3.79;2.06;;;;;;;;;;361101;147;857132;-60
2021/07/22 03:15:44;;;;;;;2.93;1.87;;;;;;;;;;360853;145;857523;-59
2021/07/22 03:16:46;;;;;;;6.35;2.18;;;;;;;;;;361478;148;857512;-58
2021/07/22 03:17:47;;;;;;;2.73;1.88;;;;;;;;;;360133;148;857726;-59
2021/07/22 03:18:49;;;;;;;6.46;1.56;;;;;;;;;;361591;145;857294;-59
2021/07/22 03:19:50;;;;;;;4.09;1.79;;;;;;;;;;359668;147;859362;-60
2021/07/22 03:20:53;;;;;;;5.51;1.32;;;;;;;;;;359134;148;857759;-60
2021/07/22 03:21:55;;;;;;;3.81;2.05;;;;;;;;;;357507;147;857518;-60
2021/07/22 03:22:56;;;;;;;4.22;1.59;;;;;;;;;;360325;147;866567;-58
2021/07/22 03:23:58;;;;;;;4.99;2.04;;;;;;;;;;362074;147;858964;-60
2021/07/22 03:24:59;;;;;;;3.75;1.61;;;;;;;;;;358617;148;859321;-60
2021/07/22 03:26:01;;;;;;;3.50;1.58;;;;;;;;;;363075;145;858706;-59
2021/07/22 03:27:04;;;;;;;7.15;1.90;;;;;;;;;;362743;147;865287;-57
2021/07/22 03:28:05;;;;;;;6.31;1.84;;;;;;;;;;358287;148;860281;-58
2021/07/22 03:29:27;;;;;;;6.45;1.89;;;;;;;;;;360868;146;865578;-60
2021/07/22 03:30:29;;;;;;;3.64;1.77;;;;;;;;;;348419;153;860239;-58
2021/07/22 03:31:31;;;;;;;1.96;1.53;;;;;;;;;;349102;150;857235;-58
2021/07/22 03:32:34;;;;;;;4.37;1.43;;;;;;;;;;348464;150;864918;-59
2021/07/22 03:33:36;;;;;;;4.34;1.89;;;;;;;;;;350310;150;857380;-59
2021/07/22 03:34:38;;;;;;;3.07;1.74;;;;;;;;;;353233;150;857240;-59
2021/07/22 03:35:41;;;;;;;5.43;1.73;;;;;;;;;;346194;153;859085;-58
2021/07/22 03:36:45;;;;;;;2.48;1.69;;;;;;;;;;346497;151;864773;-59
2021/07/22 03:37:46;;;;;;;6.53;1.77;;;;;;;;;;347545;153;857758;-59
2021/07/22 03:38:48;;;;;;;3.46;1.60;;;;;;;;;;343902;153;857293;-58
2021/07/22 03:39:49;;;;;;;7.85;1.96;;;;;;;;;;344602;152;857292;-58
2021/07/22 03:40:52;;;;;;;6.66;2.01;;;;;;;;;;344502;155;857124;-57
2021/07/22 03:41:53;;;;;;;7.49;2.09;;;;;;;;;;345257;153;857348;-57
2021/07/22 03:42:55;;;;;;;5.34;1.77;;;;;;;;;;346363;153;857279;-58
2021/07/22 03:43:56;;;;;;;2.35;1.51;;;;;;;;;;343029;153;858822;-59
2021/07/22 03:44:58;;;;;;;3.89;1.56;;;;;;;;;;343448;154;858598;-57
2021/07/22 03:45:59;;;;;;;10.03;2.14;;;;;;;;;;345062;154;859027;-58
2021/07/22 03:47:02;;;;;;;5.29;1.65;;;;;;;;;;344860;153;857244;-59
2021/07/22 03:48:04;;;;;;;4.94;2.00;;;;;;;;;;345062;156;858667;-57
2021/07/22 03:49:06;;;;;;;4.71;1.27;;;;;;;;;;346888;154;864811;-58
2021/07/22 03:50:08;;;;;;;6.29;2.99;;;;;;;;;;345314;152;858114;-59
2021/07/22 03:51:10;;;;;;;2.69;1.68;;;;;;;;;;345040;153;857385;-59
2021/07/22 03:52:12;;;;;;;3.79;1.79;;;;;;;;;;348945;153;858010;-58
2021/07/22 03:53:14;;;;;;;2.83;1.36;;;;;;;;;;346592;153;864928;-59
2021/07/22 03:54:15;;;;;;;3.68;1.66;;;;;;;;;;343279;155;858107;-59
2021/07/22 03:55:17;;;;;;;4.94;1.81;;;;;;;;;;344586;153;856581;-59
2021/07/22 03:56:20;;;;;;;5.81;1.48;;;;;;;;;;345783;153;864942;-59
2021/07/22 03:57:21;;;;;;;3.46;1.48;;;;;;;;;;345129;153;857424;-59
2021/07/22 03:58:23;;;;;;;4.17;1.76;;;;;;;;;;343755;156;858653;-59
2021/07/22 03:59:24;;;;;;;3.35;1.49;;;;;;;;;;344681;156;859503;-62
2021/07/22 04:00:26;;;;;;;5.79;1.64;;;;;;;;;;342446;153;858829;-58
2021/07/22 04:01:28;;;;;;;11.14;1.95;;;;;;;;;;345586;153;865973;-59
2021/07/22 04:02:29;;;;;;;6.32;1.66;;;;;;;;;;345067;153;865004;-59
2021/07/22 04:03:35;;;;;;;2.58;1.50;;;;;;;;;;345654;153;857223;-60
2021/07/22 04:04:34;;;;;;;7.41;1.49;;;;;;;;;;343419;154;857221;-59
2021/07/22 04:05:36;;;;;;;2.93;1.09;;;;;;;;;;345105;153;858898;-59
2021/07/22 04:06:42;;;;;;;4.08;1.59;;;;;;;;;;338042;155;864977;-62
2021/07/22 04:07:44;;;;;;;4.95;1.47;;;;;;;;;;339988;155;859693;-62
2021/07/22 04:08:45;;;;;;;2.86;1.37;;;;;;;;;;331630;162;857326;-61
2021/07/22 04:09:47;;;;;;;8.81;1.85;;;;;;;;;;337679;159;858437;-57
2021/07/22 04:10:49;;;;;;;3.69;1.37;;;;;;;;;;337671;156;858924;-57
2021/07/22 04:11:50;;;;;;;4.01;2.10;;;;;;;;;;338275;156;859459;-57
2021/07/22 04:12:53;;;;;;;6.41;1.51;;;;;;;;;;337834;156;857822;-57
2021/07/22 04:13:55;;;;;;;2.40;1.63;;;;;;;;;;339631;156;857734;-59
2021/07/22 04:14:56;;;;;;;2.36;0.88;;;;;;;;;;337920;157;865253;-58
2021/07/22 04:16:02;;;;;;;8.36;1.96;;;;;;;;;;338417;158;857303;-58
2021/07/22 04:17:04;;;;;;;2.91;1.53;;;;;;;;;;338300;159;858175;-59
2021/07/22 04:18:05;;;;;;;7.74;1.47;;;;;;;;;;337170;156;857185;-59
2021/07/22 04:19:07;;;;;;;3.87;1.42;;;;;;;;;;337436;158;859097;-61
2021/07/22 04:20:10;;;;;;;4.48;1.92;;;;;;;;;;337382;156;857429;-61
2021/07/22 04:21:11;;;;;;;4.63;1.58;;;;;;;;;;337743;155;865437;-59
2021/07/22 04:22:15;;;;;;;1.92;1.31;;;;;;;;;;337127;156;860054;-58
2021/07/22 04:23:16;;;;;;;3.21;1.75;;;;;;;;;;338076;159;857930;-59
2021/07/22 04:24:18;;;;;;;7.44;1.44;;;;;;;;;;338270;155;860550;-59
2021/07/22 04:25:20;;;;;;;4.92;1.22;;;;;;;;;;338795;154;857784;-59
2021/07/22 04:26:22;;;;;;;2.71;1.55;;;;;;;;;;337538;157;857154;-59
2021/07/22 04:27:27;;;;;;;5.31;1.41;;;;;;;;;;334058;159;865300;-59
2021/07/22 04:28:27;;;;;;;4.86;1.71;;;;;;;;;;337828;156;858163;-59
2021/07/22 04:29:29;;;;;;;4.08;1.90;;;;;;;;;;337438;157;858720;-59
2021/07/22 04:30:30;;;;;;;7.46;1.57;;;;;;;;;;338067;156;857490;-58
2021/07/22 04:31:32;;;;;;;3.21;1.85;;;;;;;;;;337973;154;864765;-58
2021/07/22 04:32:34;;;;;;;5.39;1.24;;;;;;;;;;338028;155;857306;-60
2021/07/22 04:33:35;;;;;;;4.71;1.61;;;;;;;;;;341093;155;857278;-58
2021/07/22 04:34:37;;;;;;;6.07;2.76;;;;;;;22.38;100.00;151230.28;338862;155;857249;-58
2021/07/22 04:35:38;;;;;;;4.31;1.46;;;;;;;;;;332067;159;857354;-59
2021/07/22 04:36:40;;;;;;;3.04;1.44;;;;;;;;;;336004;157;864663;-59
2021/07/22 04:37:42;;;;;;;6.46;2.08;;;;;;;;;;332455;162;864836;-59
2021/07/22 04:38:43;;;;;;;6.15;1.54;;;;;;;;;;339283;156;857223;-61
2021/07/22 04:39:45;;;;;;;6.69;1.37;;;;;;;;;;337765;155;864835;-59
2021/07/22 04:40:48;;;;;;;5.51;1.61;;;;;;;;;;340003;157;857275;-59
2021/07/22 04:41:50;;;;;;;7.03;1.36;;;;;;;;;;336140;160;857298;-58
2021/07/22 04:42:51;;;;;;;5.64;2.21;;;;;;;;;;337084;158;857231;-59
2021/07/22 04:43:53;;;;;;;6.71;1.62;;;;;;;;;;337146;157;857313;-59
2021/07/22 04:44:54;;;;;;;2.14;1.49;;;;;;;;;;337353;159;857261;-59
2021/07/22 04:45:56;;;;;;;4.76;2.05;;;;;;;;;;336080;155;858867;-59
2021/07/22 04:46:58;;;;;;;4.39;2.00;;;;;;;;;;336821;159;859179;-58
2021/07/22 04:48:02;;;;;;;6.27;1.37;;;;;;;;;;337760;157;865242;-58
2021/07/22 04:49:03;;;;;;;5.08;1.57;;;;;;;;;;336516;156;857405;-58
2021/07/22 04:50:06;;;;;;;4.97;1.36;;;;;;;;;;337867;157;857862;-58
2021/07/22 04:51:07;;;;;;;4.43;1.69;;;;;;;;;;337122;155;857259;-59
2021/07/22 04:52:09;;;;;;;6.00;1.55;;;;;;;;;;337999;159;859892;-58
2021/07/22 04:53:10;;;;;;;3.21;1.51;;;;;;;;;;338650;154;857359;-60
2021/07/22 04:54:12;;;;;;;2.61;1.48;;;;;;;;;;337587;157;857398;-58
2021/07/22 04:55:14;;;;;;;3.59;1.63;;;;;;;;;;336136;159;857644;-58
2021/07/22 04:56:16;;;;;;;5.37;1.79;;;;;;;;;;338299;156;857869;-58
2021/07/22 04:57:17;;;;;;;6.06;1.34;;;;;;;;;;336830;156;856814;-57
2021/07/22 04:58:19;;;;;;;2.19;1.32;;;;;;;;;;337364;156;857335;-57
2021/07/22 04:59:20;;;;;;;3.29;1.46;;;;;;;;;;338036;156;857288;-58
2021/07/22 05:00:25;;;;;;;4.20;1.91;;;;;;;;;;337815;157;857223;-56
2021/07/22 05:01:27;;;;;;;4.09;1.34;;;;;;;;;;335115;156;859295;-58
2021/07/22 05:02:29;;;;;;;6.79;1.41;;;;;;;;;;326070;165;859151;-57
2021/07/22 05:03:31;;;;;;;5.49;1.59;;;;;;;;;;337461;156;864617;-58
2021/07/22 05:04:32;;;;;;;3.17;1.29;;;;;;;;;;334668;158;857301;-58
2021/07/22 05:05:37;;;;;;;4.82;1.61;;;;;;;;;;338804;155;857261;-58
2021/07/22 05:06:40;;;;;;;5.34;1.66;;;;;;;;;;337926;159;859075;-59
2021/07/22 05:07:41;;;;;;;4.71;1.46;;;;;;;;;;336532;157;857232;-58
2021/07/22 05:08:44;;;;;;;6.76;1.48;;;;;;;;;;337671;157;859417;-59
2021/07/22 05:09:45;;;;;;;4.49;1.61;;;;;;;;;;337473;156;864808;-59
2021/07/22 05:10:48;;;;;;;6.79;1.76;;;;;;;;;;337553;156;857350;-61
2021/07/22 05:11:49;;;;;;;4.73;1.49;;;;;;;;;;330229;160;857272;-58
2021/07/22 05:12:57;;;;;;;3.15;1.74;;;;;;;;;;342916;156;857738;-59
2021/07/22 05:13:59;;;;;;;3.99;1.56;;;;;;;;;;337964;155;858595;-59
2021/07/22 05:15:01;;;;;;;3.37;1.73;;;;;;;;;;337364;158;857389;-59
2021/07/22 05:16:03;;;;;;;3.57;1.36;;;;;;;;;;333868;159;857422;-58
2021/07/22 05:17:04;;;;;;;3.19;1.29;;;;;;;;;;337935;156;864419;-60
2021/07/22 05:18:06;;;;;;;4.75;1.33;;;;;;;;;;337679;158;865419;-58
2021/07/22 05:19:09;;;;;;;4.88;1.49;;;;;;;;;;330943;160;857272;-60
2021/07/22 05:20:11;;;;;;;8.10;1.69;;;;;;;;;;339142;156;858774;-59
2021/07/22 05:21:13;;;;;;;6.56;1.66;;;;;;;;;;337548;156;857309;-59
2021/07/22 05:22:17;;;;;;;5.42;1.76;;;;;;;;;;337563;155;867674;-58
2021/07/22 05:23:18;;;;;;;5.69;1.77;;;;;;;;;;337186;156;866847;-59
2021/07/22 05:24:20;;;;;;;2.84;1.70;;;;;;;;;;337454;156;857331;-58
2021/07/22 05:25:21;;;;;;;5.43;1.86;;;;;;;;;;338129;156;858840;-58
2021/07/22 05:26:25;;;;;;;2.88;1.48;;;;;;;;;;338044;159;858712;-58
2021/07/22 05:27:26;;;;;;;4.06;2.19;;;;;;;;;;333743;159;859200;-58
2021/07/22 05:28:28;;;;;;;4.90;1.79;;;;;;;;;;330266;159;857430;-60
2021/07/22 05:29:29;;;;;;;4.23;1.59;;;;;;;;;;331337;161;857309;-59
2021/07/22 05:30:31;;;;;;;3.50;1.87;;;;;;;;;;337851;158;857194;-59
2021/07/22 05:31:33;;;;;;;5.26;1.55;;;;;;;;;;336253;155;857210;-56
2021/07/22 05:32:35;;;;;;;2.67;1.60;;;;;;;;;;337116;156;857663;-59
2021/07/22 05:33:37;;;;;;;5.52;1.65;;;;;;;;;;338787;157;858677;-57
2021/07/22 05:34:39;;;;;;;5.67;1.76;;;;;;;;;;331630;159;857867;-59
2021/07/22 05:35:41;;;;;;;4.70;1.39;;;;;;;;;;326266;162;857532;-59
2021/07/22 05:36:43;;;;;;;6.42;1.51;;;;;;;;;;331588;160;865877;-60
2021/07/22 05:37:44;;;;;;;4.95;2.04;;;;;;;;;;337107;159;857942;-59
2021/07/22 05:38:46;;;;;;;5.81;2.36;;;;;;;;;;337012;156;858227;-59
2021/07/22 05:39:47;;;;;;;5.42;1.72;;;;;;;;;;336183;157;857887;-59
2021/07/22 05:40:49;;;;;;;4.42;1.85;;;;;;;;;;337355;157;857935;-59
2021/07/22 05:41:51;;;;;;;4.39;1.68;;;;;;;;;;337119;156;864658;-59
2021/07/22 05:42:52;;;;;;;5.68;1.84;;;;;;;;;;337280;156;857739;-59
2021/07/22 05:43:54;;;;;;;3.68;1.69;;;;;;;;;;336335;159;864723;-59
2021/07/22 05:44:55;;;;;;;8.57;2.24;;;;;;;;;;336651;157;857771;-58
2021/07/22 05:45:57;;;;;;;6.44;1.71;;;;;;;;;;336615;156;857357;-58
2021/07/22 05:46:59;;;;;;;6.09;1.57;;;;;;;;;;334637;155;857396;-58
2021/07/22 05:48:00;;;;;;;6.85;1.76;;;;;;;;;;337299;159;857376;-60
2021/07/22 05:49:02;;;;;;;4.99;1.77;;;;;;;;;;336268;157;858967;-58
2021/07/22 05:50:04;;;;;;;4.07;1.91;;;;;;;;;;336797;156;857388;-58
2021/07/22 05:51:06;;;;;;;8.11;2.02;;;;;;;;;;338630;157;860400;-58
2021/07/22 05:52:07;;;;;;;4.03;1.63;;;;;;;;;;337546;157;859540;-58
2021/07/22 05:53:09;;;;;;;6.99;2.55;;;;;;;;;;336067;156;857574;-60
2021/07/22 05:54:10;;;;;;;4.15;1.64;;;;;;;;;;337348;157;857370;-60
2021/07/22 05:55:12;;;;;;;5.41;1.64;;;;;;;;;;337389;159;857341;-58
2021/07/22 05:56:18;;;;;;;5.64;2.03;;;;;;;;;;336873;157;857461;-58
2021/07/22 05:57:20;;;;;;;5.16;1.74;;;;;;;;;;330868;160;857847;-58
2021/07/22 05:58:21;;;;;;;2.88;1.91;;;;;;;;;;338205;158;864784;-59
2021/07/22 05:59:23;;;;;;;9.44;1.84;;;;;;;;;;337020;156;866294;-59
2021/07/22 06:00:25;;;;;;;7.61;1.71;;;;;;;;;;336052;157;859427;-59
2021/07/22 06:01:27;;;;;;;7.94;1.91;;;;;;;;;;337956;157;858545;-59
2021/07/22 06:02:28;;;;;;;7.13;2.36;;;;;;;;;;336887;155;860196;-59
2021/07/22 06:03:30;;;;;;;7.35;2.34;;;;;;;;;;337104;158;859699;-58
2021/07/22 06:04:31;;;;;;;8.84;2.51;;;;;;;;;;337409;159;857184;-59
2021/07/22 06:05:33;;;;;;;6.16;1.89;;;;;;;;;;336797;157;857214;-59